sensor_id;sensor_type;location;lat;lon;timestamp;P1;durP1;ratioP1;P2;durP2;ratioP2
35877;SDS011;21982;49.804;24.072;2023-03-03T00:00:45;38.70;;;21.27;;
35877;SDS011;21982;49.804;24.072;2023-03-03T00:03:11;33.10;;;18.42;;
35877;SDS011;21982;49.804;24.072;2023-03-03T00:05:40;43.50;;;19.52;;
35877;SDS011;21982;49.804;24.072;2023-03-03T00:08:06;40.03;;;17.27;;
35877;SDS011;21982;49.804;24.072;2023-03-03T00:10:32;38.28;;;17.92;;
35877;SDS011;21982;49.804;24.072;2023-03-03T00:12:58;30.92;;;15.68;;
35877;SDS011;21982;49.804;24.072;2023-03-03T00:15:24;47.70;;;20.40;;
35877;SDS011;21982;49.804;24.072;2023-03-03T00:17:50;32.38;;;17.30;;
35877;SDS011;21982;49.804;24.072;2023-03-03T00:20:21;33.83;;;18.15;;
35877;SDS011;21982;49.804;24.072;2023-03-03T00:22:53;37.58;;;16.45;;
35877;SDS011;21982;49.804;24.072;2023-03-03T00:30:49;46.75;;;20.90;;
35877;SDS011;21982;49.804;24.072;2023-03-03T00:33:22;40.47;;;21.52;;
35877;SDS011;21982;49.804;24.072;2023-03-03T00:35:57;41.85;;;20.20;;
35877;SDS011;21982;49.804;24.072;2023-03-03T00:38:39;41.35;;;19.90;;
35877;SDS011;21982;49.804;24.072;2023-03-03T00:41:13;43.22;;;22.48;;
35877;SDS011;21982;49.804;24.072;2023-03-03T00:43:44;46.22;;;21.45;;
35877;SDS011;21982;49.804;24.072;2023-03-03T00:46:09;41.58;;;21.65;;
35877;SDS011;21982;49.804;24.072;2023-03-03T00:48:41;33.50;;;17.67;;
35877;SDS011;21982;49.804;24.072;2023-03-03T00:51:29;33.47;;;17.17;;
35877;SDS011;21982;49.804;24.072;2023-03-03T00:53:54;38.83;;;18.13;;
35877;SDS011;21982;49.804;24.072;2023-03-03T00:56:20;35.30;;;16.98;;
35877;SDS011;21982;49.804;24.072;2023-03-03T00:58:45;32.15;;;17.67;;
35877;SDS011;21982;49.804;24.072;2023-03-03T01:01:12;43.45;;;22.70;;
35877;SDS011;21982;49.804;24.072;2023-03-03T01:03:38;38.08;;;21.00;;
35877;SDS011;21982;49.804;24.072;2023-03-03T01:06:04;41.47;;;18.55;;
35877;SDS011;21982;49.804;24.072;2023-03-03T01:08:30;41.40;;;20.73;;
35877;SDS011;21982;49.804;24.072;2023-03-03T01:10:59;47.95;;;23.15;;
35877;SDS011;21982;49.804;24.072;2023-03-03T01:13:30;37.42;;;22.13;;
35877;SDS011;21982;49.804;24.072;2023-03-03T01:15:58;39.58;;;20.35;;
35877;SDS011;21982;49.804;24.072;2023-03-03T01:18:25;36.00;;;20.52;;
35877;SDS011;21982;49.804;24.072;2023-03-03T01:20:51;38.33;;;19.35;;
35877;SDS011;21982;49.804;24.072;2023-03-03T01:23:16;37.15;;;19.33;;
35877;SDS011;21982;49.804;24.072;2023-03-03T01:25:42;41.45;;;21.90;;
35877;SDS011;21982;49.804;24.072;2023-03-03T01:28:08;37.47;;;20.27;;
35877;SDS011;21982;49.804;24.072;2023-03-03T01:30:33;43.40;;;22.08;;
35877;SDS011;21982;49.804;24.072;2023-03-03T01:32:59;45.42;;;24.35;;
35877;SDS011;21982;49.804;24.072;2023-03-03T01:35:24;42.65;;;25.13;;
35877;SDS011;21982;49.804;24.072;2023-03-03T01:37:50;51.33;;;27.25;;
35877;SDS011;21982;49.804;24.072;2023-03-03T01:40:25;47.78;;;24.05;;
35877;SDS011;21982;49.804;24.072;2023-03-03T01:42:52;45.35;;;24.60;;
35877;SDS011;21982;49.804;24.072;2023-03-03T01:45:22;49.65;;;24.73;;
35877;SDS011;21982;49.804;24.072;2023-03-03T01:50:29;42.65;;;24.52;;
35877;SDS011;21982;49.804;24.072;2023-03-03T01:53:20;42.53;;;24.83;;
35877;SDS011;21982;49.804;24.072;2023-03-03T01:55:50;42.10;;;23.95;;
35877;SDS011;21982;49.804;24.072;2023-03-03T01:58:21;47.38;;;25.75;;
35877;SDS011;21982;49.804;24.072;2023-03-03T02:00:54;44.40;;;25.33;;
35877;SDS011;21982;49.804;24.072;2023-03-03T02:03:24;47.08;;;28.10;;
35877;SDS011;21982;49.804;24.072;2023-03-03T02:05:51;46.03;;;24.00;;
35877;SDS011;21982;49.804;24.072;2023-03-03T02:08:20;51.92;;;27.30;;
35877;SDS011;21982;49.804;24.072;2023-03-03T02:10:51;48.00;;;27.48;;
35877;SDS011;21982;49.804;24.072;2023-03-03T02:13:17;46.58;;;27.67;;
35877;SDS011;21982;49.804;24.072;2023-03-03T02:15:42;59.25;;;32.90;;
35877;SDS011;21982;49.804;24.072;2023-03-03T02:18:09;66.15;;;35.67;;
35877;SDS011;21982;49.804;24.072;2023-03-03T02:23:32;77.82;;;39.22;;
35877;SDS011;21982;49.804;24.072;2023-03-03T02:26:23;71.45;;;36.38;;
35877;SDS011;21982;49.804;24.072;2023-03-03T02:28:51;75.10;;;36.58;;
35877;SDS011;21982;49.804;24.072;2023-03-03T02:31:17;105.35;;;37.45;;
35877;SDS011;21982;49.804;24.072;2023-03-03T02:33:46;108.57;;;40.38;;
35877;SDS011;21982;49.804;24.072;2023-03-03T02:36:15;166.07;;;46.00;;
35877;SDS011;21982;49.804;24.072;2023-03-03T02:42:02;148.18;;;43.20;;
35877;SDS011;21982;49.804;24.072;2023-03-03T02:44:33;239.45;;;57.45;;
35877;SDS011;21982;49.804;24.072;2023-03-03T02:46:59;156.68;;;45.00;;
35877;SDS011;21982;49.804;24.072;2023-03-03T02:49:26;186.48;;;46.42;;
35877;SDS011;21982;49.804;24.072;2023-03-03T02:51:58;140.77;;;43.55;;
35877;SDS011;21982;49.804;24.072;2023-03-03T02:54:25;154.20;;;43.83;;
35877;SDS011;21982;49.804;24.072;2023-03-03T02:56:51;178.25;;;44.50;;
35877;SDS011;21982;49.804;24.072;2023-03-03T02:59:17;288.88;;;56.33;;
35877;SDS011;21982;49.804;24.072;2023-03-03T03:01:43;299.38;;;53.05;;
35877;SDS011;21982;49.804;24.072;2023-03-03T03:04:10;260.55;;;50.40;;
35877;SDS011;21982;49.804;24.072;2023-03-03T03:06:43;265.88;;;47.20;;
35877;SDS011;21982;49.804;24.072;2023-03-03T03:09:09;276.15;;;48.28;;
35877;SDS011;21982;49.804;24.072;2023-03-03T03:11:35;278.27;;;48.90;;
35877;SDS011;21982;49.804;24.072;2023-03-03T03:14:05;259.83;;;47.92;;
35877;SDS011;21982;49.804;24.072;2023-03-03T03:16:31;213.93;;;42.28;;
35877;SDS011;21982;49.804;24.072;2023-03-03T03:18:58;141.75;;;37.15;;
35877;SDS011;21982;49.804;24.072;2023-03-03T03:21:24;237.18;;;43.05;;
35877;SDS011;21982;49.804;24.072;2023-03-03T03:23:49;209.63;;;48.60;;
35877;SDS011;21982;49.804;24.072;2023-03-03T03:26:14;141.43;;;37.60;;
35877;SDS011;21982;49.804;24.072;2023-03-03T03:28:40;297.38;;;47.55;;
35877;SDS011;21982;49.804;24.072;2023-03-03T03:31:06;180.10;;;41.10;;
35877;SDS011;21982;49.804;24.072;2023-03-03T03:33:33;114.82;;;37.88;;
35877;SDS011;21982;49.804;24.072;2023-03-03T03:35:58;197.43;;;42.90;;
35877;SDS011;21982;49.804;24.072;2023-03-03T03:38:24;108.50;;;40.40;;
35877;SDS011;21982;49.804;24.072;2023-03-03T03:40:54;231.65;;;47.97;;
35877;SDS011;21982;49.804;24.072;2023-03-03T03:43:19;125.32;;;37.78;;
35877;SDS011;21982;49.804;24.072;2023-03-03T03:45:44;131.60;;;37.40;;
35877;SDS011;21982;49.804;24.072;2023-03-03T03:48:10;128.20;;;38.05;;
35877;SDS011;21982;49.804;24.072;2023-03-03T03:50:36;185.68;;;39.88;;
35877;SDS011;21982;49.804;24.072;2023-03-03T03:53:02;165.77;;;37.65;;
35877;SDS011;21982;49.804;24.072;2023-03-03T03:55:29;148.27;;;37.63;;
35877;SDS011;21982;49.804;24.072;2023-03-03T03:57:55;112.43;;;37.08;;
35877;SDS011;21982;49.804;24.072;2023-03-03T04:00:21;135.82;;;41.08;;
35877;SDS011;21982;49.804;24.072;2023-03-03T04:02:47;124.00;;;37.25;;
35877;SDS011;21982;49.804;24.072;2023-03-03T04:05:12;122.93;;;33.80;;
35877;SDS011;21982;49.804;24.072;2023-03-03T04:07:38;115.65;;;37.15;;
35877;SDS011;21982;49.804;24.072;2023-03-03T04:10:04;159.73;;;39.95;;
35877;SDS011;21982;49.804;24.072;2023-03-03T04:12:29;108.40;;;37.80;;
35877;SDS011;21982;49.804;24.072;2023-03-03T04:15:02;232.55;;;44.80;;
35877;SDS011;21982;49.804;24.072;2023-03-03T04:17:31;104.25;;;37.42;;
35877;SDS011;21982;49.804;24.072;2023-03-03T04:19:57;109.18;;;37.35;;
35877;SDS011;21982;49.804;24.072;2023-03-03T04:22:23;395.75;;;59.17;;
35877;SDS011;21982;49.804;24.072;2023-03-03T04:24:49;232.30;;;42.95;;
35877;SDS011;21982;49.804;24.072;2023-03-03T04:27:15;369.02;;;51.75;;
35877;SDS011;21982;49.804;24.072;2023-03-03T04:29:40;156.52;;;46.17;;
35877;SDS011;21982;49.804;24.072;2023-03-03T04:32:07;180.45;;;44.38;;
35877;SDS011;21982;49.804;24.072;2023-03-03T04:34:33;134.50;;;40.72;;
35877;SDS011;21982;49.804;24.072;2023-03-03T04:37:01;198.57;;;45.95;;
35877;SDS011;21982;49.804;24.072;2023-03-03T04:39:27;125.82;;;40.42;;
35877;SDS011;21982;49.804;24.072;2023-03-03T04:41:52;218.90;;;46.70;;
35877;SDS011;21982;49.804;24.072;2023-03-03T04:44:18;252.13;;;46.60;;
35877;SDS011;21982;49.804;24.072;2023-03-03T04:46:43;129.85;;;41.13;;
35877;SDS011;21982;49.804;24.072;2023-03-03T04:49:09;244.02;;;47.45;;
35877;SDS011;21982;49.804;24.072;2023-03-03T04:51:34;96.82;;;39.80;;
35877;SDS011;21982;49.804;24.072;2023-03-03T04:53:59;151.80;;;42.85;;
35877;SDS011;21982;49.804;24.072;2023-03-03T04:56:25;198.57;;;45.83;;
35877;SDS011;21982;49.804;24.072;2023-03-03T04:58:52;214.65;;;52.97;;
35877;SDS011;21982;49.804;24.072;2023-03-03T05:01:20;167.32;;;49.03;;
35877;SDS011;21982;49.804;24.072;2023-03-03T05:03:46;212.48;;;57.67;;
35877;SDS011;21982;49.804;24.072;2023-03-03T05:06:11;268.27;;;58.95;;
35877;SDS011;21982;49.804;24.072;2023-03-03T05:08:37;295.17;;;80.45;;
35877;SDS011;21982;49.804;24.072;2023-03-03T05:11:02;243.45;;;80.05;;
35877;SDS011;21982;49.804;24.072;2023-03-03T05:13:28;334.60;;;84.25;;
35877;SDS011;21982;49.804;24.072;2023-03-03T05:15:54;268.45;;;69.10;;
35877;SDS011;21982;49.804;24.072;2023-03-03T05:18:21;229.18;;;61.22;;
35877;SDS011;21982;49.804;24.072;2023-03-03T05:20:47;246.43;;;56.42;;
35877;SDS011;21982;49.804;24.072;2023-03-03T05:23:14;292.77;;;65.80;;
35877;SDS011;21982;49.804;24.072;2023-03-03T05:25:41;213.38;;;57.75;;
35877;SDS011;21982;49.804;24.072;2023-03-03T05:28:07;163.90;;;55.75;;
35877;SDS011;21982;49.804;24.072;2023-03-03T05:30:33;235.13;;;64.25;;
35877;SDS011;21982;49.804;24.072;2023-03-03T05:32:59;211.23;;;56.63;;
35877;SDS011;21982;49.804;24.072;2023-03-03T05:35:25;197.85;;;56.30;;
35877;SDS011;21982;49.804;24.072;2023-03-03T05:37:51;170.25;;;54.63;;
35877;SDS011;21982;49.804;24.072;2023-03-03T05:40:18;279.88;;;64.68;;
35877;SDS011;21982;49.804;24.072;2023-03-03T05:42:46;300.38;;;66.60;;
35877;SDS011;21982;49.804;24.072;2023-03-03T05:45:11;292.98;;;71.05;;
35877;SDS011;21982;49.804;24.072;2023-03-03T05:47:37;225.55;;;64.97;;
35877;SDS011;21982;49.804;24.072;2023-03-03T05:50:03;188.43;;;57.35;;
35877;SDS011;21982;49.804;24.072;2023-03-03T05:52:29;163.07;;;57.40;;
35877;SDS011;21982;49.804;24.072;2023-03-03T05:54:54;145.68;;;54.28;;
35877;SDS011;21982;49.804;24.072;2023-03-03T05:57:19;119.00;;;53.67;;
35877;SDS011;21982;49.804;24.072;2023-03-03T05:59:45;122.57;;;54.60;;
35877;SDS011;21982;49.804;24.072;2023-03-03T06:02:15;113.47;;;48.40;;
35877;SDS011;21982;49.804;24.072;2023-03-03T06:04:42;96.78;;;46.22;;
35877;SDS011;21982;49.804;24.072;2023-03-03T06:07:07;92.00;;;45.70;;
35877;SDS011;21982;49.804;24.072;2023-03-03T06:09:33;80.78;;;41.88;;
35877;SDS011;21982;49.804;24.072;2023-03-03T06:11:58;91.68;;;45.78;;
35877;SDS011;21982;49.804;24.072;2023-03-03T06:14:24;86.10;;;43.30;;
35877;SDS011;21982;49.804;24.072;2023-03-03T06:16:49;99.38;;;50.70;;
35877;SDS011;21982;49.804;24.072;2023-03-03T06:19:15;89.45;;;44.42;;
35877;SDS011;21982;49.804;24.072;2023-03-03T06:21:40;103.10;;;47.08;;
35877;SDS011;21982;49.804;24.072;2023-03-03T06:24:06;94.68;;;50.83;;
35877;SDS011;21982;49.804;24.072;2023-03-03T06:26:32;96.45;;;48.78;;
35877;SDS011;21982;49.804;24.072;2023-03-03T06:28:59;94.60;;;47.47;;
35877;SDS011;21982;49.804;24.072;2023-03-03T06:31:24;105.22;;;50.22;;
35877;SDS011;21982;49.804;24.072;2023-03-03T06:34:00;107.20;;;48.15;;
35877;SDS011;21982;49.804;24.072;2023-03-03T06:36:25;121.20;;;53.55;;
35877;SDS011;21982;49.804;24.072;2023-03-03T06:38:51;116.50;;;52.30;;
35877;SDS011;21982;49.804;24.072;2023-03-03T06:41:16;134.85;;;59.58;;
35877;SDS011;21982;49.804;24.072;2023-03-03T06:43:42;120.75;;;53.13;;
35877;SDS011;21982;49.804;24.072;2023-03-03T06:46:07;112.80;;;53.00;;
35877;SDS011;21982;49.804;24.072;2023-03-03T06:48:33;109.03;;;52.90;;
35877;SDS011;21982;49.804;24.072;2023-03-03T06:50:59;115.25;;;55.80;;
35877;SDS011;21982;49.804;24.072;2023-03-03T06:53:27;154.68;;;73.88;;
35877;SDS011;21982;49.804;24.072;2023-03-03T06:55:54;125.63;;;58.88;;
35877;SDS011;21982;49.804;24.072;2023-03-03T06:58:24;120.70;;;61.38;;
35877;SDS011;21982;49.804;24.072;2023-03-03T07:00:57;141.30;;;60.67;;
35877;SDS011;21982;49.804;24.072;2023-03-03T07:03:24;111.18;;;55.28;;
35877;SDS011;21982;49.804;24.072;2023-03-03T07:05:55;84.13;;;43.92;;
35877;SDS011;21982;49.804;24.072;2023-03-03T07:08:21;87.25;;;40.95;;
35877;SDS011;21982;49.804;24.072;2023-03-03T07:11:00;97.50;;;47.10;;
35877;SDS011;21982;49.804;24.072;2023-03-03T07:13:32;113.22;;;52.97;;
35877;SDS011;21982;49.804;24.072;2023-03-03T07:16:02;88.32;;;44.03;;
35877;SDS011;21982;49.804;24.072;2023-03-03T07:18:41;100.75;;;48.20;;
35877;SDS011;21982;49.804;24.072;2023-03-03T07:21:18;91.60;;;42.95;;
35877;SDS011;21982;49.804;24.072;2023-03-03T07:23:47;87.60;;;42.08;;
35877;SDS011;21982;49.804;24.072;2023-03-03T07:26:18;97.82;;;42.95;;
35877;SDS011;21982;49.804;24.072;2023-03-03T07:28:57;86.68;;;42.33;;
35877;SDS011;21982;49.804;24.072;2023-03-03T07:31:40;93.40;;;42.55;;
35877;SDS011;21982;49.804;24.072;2023-03-03T07:34:19;78.43;;;41.67;;
35877;SDS011;21982;49.804;24.072;2023-03-03T07:36:58;93.45;;;47.13;;
35877;SDS011;21982;49.804;24.072;2023-03-03T07:42:40;88.35;;;40.22;;
35877;SDS011;21982;49.804;24.072;2023-03-03T07:44:53;72.30;;;38.30;;
35877;SDS011;21982;49.804;24.072;2023-03-03T07:47:27;72.90;;;34.83;;
35877;SDS011;21982;49.804;24.072;2023-03-03T07:50:17;88.00;;;42.25;;
35877;SDS011;21982;49.804;24.072;2023-03-03T07:52:56;71.75;;;35.58;;
35877;SDS011;21982;49.804;24.072;2023-03-03T07:55:26;76.78;;;33.92;;
35877;SDS011;21982;49.804;24.072;2023-03-03T07:57:58;77.72;;;35.78;;
35877;SDS011;21982;49.804;24.072;2023-03-03T08:03:49;67.18;;;30.75;;
35877;SDS011;21982;49.804;24.072;2023-03-03T08:11:33;44.75;;;22.67;;
35877;SDS011;21982;49.804;24.072;2023-03-03T08:14:07;59.60;;;24.23;;
35877;SDS011;21982;49.804;24.072;2023-03-03T08:16:36;65.03;;;28.30;;
35877;SDS011;21982;49.804;24.072;2023-03-03T08:19:03;59.70;;;29.40;;
35877;SDS011;21982;49.804;24.072;2023-03-03T08:21:30;67.82;;;32.45;;
35877;SDS011;21982;49.804;24.072;2023-03-03T08:23:56;79.57;;;34.35;;
35877;SDS011;21982;49.804;24.072;2023-03-03T08:26:22;46.13;;;24.15;;
35877;SDS011;21982;49.804;24.072;2023-03-03T08:28:49;36.13;;;19.67;;
35877;SDS011;21982;49.804;24.072;2023-03-03T08:31:15;45.15;;;19.55;;
35877;SDS011;21982;49.804;24.072;2023-03-03T08:33:41;34.55;;;18.73;;
35877;SDS011;21982;49.804;24.072;2023-03-03T08:36:07;33.20;;;17.33;;
35877;SDS011;21982;49.804;24.072;2023-03-03T08:38:33;38.03;;;17.92;;
35877;SDS011;21982;49.804;24.072;2023-03-03T08:40:59;32.08;;;16.88;;
35877;SDS011;21982;49.804;24.072;2023-03-03T08:43:25;40.95;;;19.35;;
35877;SDS011;21982;49.804;24.072;2023-03-03T08:45:51;37.78;;;19.58;;
35877;SDS011;21982;49.804;24.072;2023-03-03T08:48:20;34.67;;;17.30;;
35877;SDS011;21982;49.804;24.072;2023-03-03T08:50:46;32.45;;;16.33;;
35877;SDS011;21982;49.804;24.072;2023-03-03T08:53:12;36.63;;;17.48;;
35877;SDS011;21982;49.804;24.072;2023-03-03T08:55:38;42.05;;;19.80;;
35877;SDS011;21982;49.804;24.072;2023-03-03T08:58:05;42.55;;;22.23;;
35877;SDS011;21982;49.804;24.072;2023-03-03T09:00:30;47.67;;;22.48;;
35877;SDS011;21982;49.804;24.072;2023-03-03T09:02:57;59.80;;;31.92;;
35877;SDS011;21982;49.804;24.072;2023-03-03T09:05:23;40.28;;;19.92;;
35877;SDS011;21982;49.804;24.072;2023-03-03T09:07:49;39.25;;;17.70;;
35877;SDS011;21982;49.804;24.072;2023-03-03T09:10:20;34.63;;;18.00;;
35877;SDS011;21982;49.804;24.072;2023-03-03T09:12:51;36.50;;;18.08;;
35877;SDS011;21982;49.804;24.072;2023-03-03T09:15:25;32.33;;;16.58;;
35877;SDS011;21982;49.804;24.072;2023-03-03T09:17:59;41.38;;;19.63;;
35877;SDS011;21982;49.804;24.072;2023-03-03T09:20:48;40.47;;;18.77;;
35877;SDS011;21982;49.804;24.072;2023-03-03T09:23:24;42.72;;;19.75;;
35877;SDS011;21982;49.804;24.072;2023-03-03T09:25:55;52.83;;;26.27;;
35877;SDS011;21982;49.804;24.072;2023-03-03T09:28:24;54.28;;;22.52;;
35877;SDS011;21982;49.804;24.072;2023-03-03T09:30:52;39.05;;;19.38;;
35877;SDS011;21982;49.804;24.072;2023-03-03T09:35:51;59.47;;;22.88;;
35877;SDS011;21982;49.804;24.072;2023-03-03T09:43:49;32.55;;;16.77;;
35877;SDS011;21982;49.804;24.072;2023-03-03T09:46:41;31.15;;;15.75;;
35877;SDS011;21982;49.804;24.072;2023-03-03T09:49:32;40.88;;;20.73;;
35877;SDS011;21982;49.804;24.072;2023-03-03T09:52:14;33.78;;;14.75;;
35877;SDS011;21982;49.804;24.072;2023-03-03T10:06:26;50.80;;;21.98;;
35877;SDS011;21982;49.804;24.072;2023-03-03T10:09:05;39.28;;;18.50;;
35877;SDS011;21982;49.804;24.072;2023-03-03T10:14:22;50.47;;;21.77;;
35877;SDS011;21982;49.804;24.072;2023-03-03T10:17:21;41.47;;;18.65;;
35877;SDS011;21982;49.804;24.072;2023-03-03T10:20:01;30.17;;;13.35;;
35877;SDS011;21982;49.804;24.072;2023-03-03T10:22:51;24.63;;;13.10;;
35877;SDS011;21982;49.804;24.072;2023-03-03T10:25:39;36.05;;;17.33;;
35877;SDS011;21982;49.804;24.072;2023-03-03T10:33:46;27.40;;;14.55;;
35877;SDS011;21982;49.804;24.072;2023-03-03T10:39:12;28.55;;;13.82;;
35877;SDS011;21982;49.804;24.072;2023-03-03T10:50:23;65.15;;;23.40;;
35877;SDS011;21982;49.804;24.072;2023-03-03T10:55:35;42.50;;;19.05;;
35877;SDS011;21982;49.804;24.072;2023-03-03T10:58:20;35.67;;;14.75;;
35877;SDS011;21982;49.804;24.072;2023-03-03T11:14:20;33.60;;;15.15;;
35877;SDS011;21982;49.804;24.072;2023-03-03T11:33:35;36.40;;;16.48;;
35877;SDS011;21982;49.804;24.072;2023-03-03T11:36:31;38.65;;;20.13;;
35877;SDS011;21982;49.804;24.072;2023-03-03T11:39:07;50.17;;;22.38;;
35877;SDS011;21982;49.804;24.072;2023-03-03T11:41:42;32.08;;;16.88;;
35877;SDS011;21982;49.804;24.072;2023-03-03T11:44:21;33.47;;;18.30;;
35877;SDS011;21982;49.804;24.072;2023-03-03T11:47:13;33.58;;;17.52;;
35877;SDS011;21982;49.804;24.072;2023-03-03T11:50:12;43.63;;;19.90;;
35877;SDS011;21982;49.804;24.072;2023-03-03T11:57:47;32.55;;;16.70;;
35877;SDS011;21982;49.804;24.072;2023-03-03T12:04:01;32.15;;;16.40;;
35877;SDS011;21982;49.804;24.072;2023-03-03T12:14:36;34.38;;;17.13;;
35877;SDS011;21982;49.804;24.072;2023-03-03T12:17:35;32.20;;;15.38;;
35877;SDS011;21982;49.804;24.072;2023-03-03T12:25:40;36.67;;;18.77;;
35877;SDS011;21982;49.804;24.072;2023-03-03T12:28:23;46.88;;;21.00;;
35877;SDS011;21982;49.804;24.072;2023-03-03T12:31:15;44.72;;;22.67;;
35877;SDS011;21982;49.804;24.072;2023-03-03T12:33:58;38.83;;;18.88;;
35877;SDS011;21982;49.804;24.072;2023-03-03T12:44:58;39.58;;;20.83;;
35877;SDS011;21982;49.804;24.072;2023-03-03T12:47:38;41.08;;;19.63;;
35877;SDS011;21982;49.804;24.072;2023-03-03T13:11:35;37.28;;;20.83;;
35877;SDS011;21982;49.804;24.072;2023-03-03T13:14:42;42.50;;;24.27;;
35877;SDS011;21982;49.804;24.072;2023-03-03T13:20:19;46.58;;;24.42;;
35877;SDS011;21982;49.804;24.072;2023-03-03T13:23:03;40.40;;;22.23;;
35877;SDS011;21982;49.804;24.072;2023-03-03T13:37:28;42.42;;;20.52;;
35877;SDS011;21982;49.804;24.072;2023-03-03T13:40:05;37.58;;;18.48;;
35877;SDS011;21982;49.804;24.072;2023-03-03T14:10:12;36.45;;;20.42;;
35877;SDS011;21982;49.804;24.072;2023-03-03T14:13:10;41.67;;;22.45;;
35877;SDS011;21982;49.804;24.072;2023-03-03T14:19:05;48.65;;;22.50;;
35877;SDS011;21982;49.804;24.072;2023-03-03T14:22:25;38.20;;;21.83;;
35877;SDS011;21982;49.804;24.072;2023-03-03T14:24:55;63.83;;;31.77;;
35877;SDS011;21982;49.804;24.072;2023-03-03T14:33:32;49.53;;;25.38;;
35877;SDS011;21982;49.804;24.072;2023-03-03T14:38:09;40.60;;;22.67;;
35877;SDS011;21982;49.804;24.072;2023-03-03T14:40:38;42.95;;;21.02;;
35877;SDS011;21982;49.804;24.072;2023-03-03T14:45:50;41.97;;;22.45;;
35877;SDS011;21982;49.804;24.072;2023-03-03T14:53:51;45.90;;;24.00;;
35877;SDS011;21982;49.804;24.072;2023-03-03T14:56:21;43.53;;;22.70;;
35877;SDS011;21982;49.804;24.072;2023-03-03T14:58:53;43.97;;;24.30;;
35877;SDS011;21982;49.804;24.072;2023-03-03T15:01:39;49.67;;;23.90;;
35877;SDS011;21982;49.804;24.072;2023-03-03T15:06:42;41.70;;;22.17;;
35877;SDS011;21982;49.804;24.072;2023-03-03T15:12:25;43.20;;;23.63;;
35877;SDS011;21982;49.804;24.072;2023-03-03T15:14:51;43.60;;;23.65;;
35877;SDS011;21982;49.804;24.072;2023-03-03T15:26:00;41.92;;;21.35;;
35877;SDS011;21982;49.804;24.072;2023-03-03T15:28:45;46.95;;;20.15;;
35877;SDS011;21982;49.804;24.072;2023-03-03T15:31:19;45.67;;;22.55;;
35877;SDS011;21982;49.804;24.072;2023-03-03T15:42:29;43.95;;;21.50;;
35877;SDS011;21982;49.804;24.072;2023-03-03T15:45:06;45.65;;;21.55;;
35877;SDS011;21982;49.804;24.072;2023-03-03T15:47:43;43.33;;;22.08;;
35877;SDS011;21982;49.804;24.072;2023-03-03T15:52:54;42.10;;;20.02;;
35877;SDS011;21982;49.804;24.072;2023-03-03T15:55:35;45.25;;;24.05;;
35877;SDS011;21982;49.804;24.072;2023-03-03T16:07:13;47.25;;;24.52;;
35877;SDS011;21982;49.804;24.072;2023-03-03T16:20:32;43.70;;;23.20;;
35877;SDS011;21982;49.804;24.072;2023-03-03T16:23:19;48.92;;;25.40;;
35877;SDS011;21982;49.804;24.072;2023-03-03T16:32:00;54.85;;;28.33;;
35877;SDS011;21982;49.804;24.072;2023-03-03T16:42:35;52.88;;;25.33;;
35877;SDS011;21982;49.804;24.072;2023-03-03T16:45:19;49.95;;;25.83;;
35877;SDS011;21982;49.804;24.072;2023-03-03T17:02:00;59.30;;;29.45;;
35877;SDS011;21982;49.804;24.072;2023-03-03T17:04:46;50.20;;;25.98;;
35877;SDS011;21982;49.804;24.072;2023-03-03T17:13:40;65.25;;;28.50;;
35877;SDS011;21982;49.804;24.072;2023-03-03T17:28:08;61.13;;;29.30;;
35877;SDS011;21982;49.804;24.072;2023-03-03T17:31:00;62.03;;;29.48;;
35877;SDS011;21982;49.804;24.072;2023-03-03T17:33:52;57.53;;;31.35;;
35877;SDS011;21982;49.804;24.072;2023-03-03T17:39:10;64.32;;;30.45;;
35877;SDS011;21982;49.804;24.072;2023-03-03T17:44:44;63.42;;;32.13;;
35877;SDS011;21982;49.804;24.072;2023-03-03T17:47:19;68.15;;;32.60;;
35877;SDS011;21982;49.804;24.072;2023-03-03T17:50:16;64.88;;;32.58;;
35877;SDS011;21982;49.804;24.072;2023-03-03T17:58:51;57.55;;;31.70;;
35877;SDS011;21982;49.804;24.072;2023-03-03T18:04:17;67.35;;;33.95;;
35877;SDS011;21982;49.804;24.072;2023-03-03T18:12:39;68.03;;;32.78;;
35877;SDS011;21982;49.804;24.072;2023-03-03T18:26:02;60.97;;;31.67;;
35877;SDS011;21982;49.804;24.072;2023-03-03T18:28:49;64.93;;;32.92;;
35877;SDS011;21982;49.804;24.072;2023-03-03T18:31:25;58.13;;;30.42;;
35877;SDS011;21982;49.804;24.072;2023-03-03T18:33:59;62.67;;;33.00;;
35877;SDS011;21982;49.804;24.072;2023-03-03T18:36:55;59.08;;;32.08;;
35877;SDS011;21982;49.804;24.072;2023-03-03T18:44:51;60.63;;;29.02;;
35877;SDS011;21982;49.804;24.072;2023-03-03T18:47:16;62.53;;;31.38;;
35877;SDS011;21982;49.804;24.072;2023-03-03T19:00:54;60.75;;;30.55;;
35877;SDS011;21982;49.804;24.072;2023-03-03T19:06:00;55.30;;;26.23;;
35877;SDS011;21982;49.804;24.072;2023-03-03T19:08:41;59.00;;;26.27;;
35877;SDS011;21982;49.804;24.072;2023-03-03T19:11:28;46.13;;;24.90;;
35877;SDS011;21982;49.804;24.072;2023-03-03T19:14:11;55.92;;;26.33;;
35877;SDS011;21982;49.804;24.072;2023-03-03T19:17:40;65.53;;;28.80;;
35877;SDS011;21982;49.804;24.072;2023-03-03T19:19:58;59.30;;;29.42;;
35877;SDS011;21982;49.804;24.072;2023-03-03T19:22:32;57.78;;;26.63;;
35877;SDS011;21982;49.804;24.072;2023-03-03T19:25:13;53.25;;;27.45;;
35877;SDS011;21982;49.804;24.072;2023-03-03T19:27:50;56.22;;;27.77;;
35877;SDS011;21982;49.804;24.072;2023-03-03T19:30:32;52.15;;;27.08;;
35877;SDS011;21982;49.804;24.072;2023-03-03T19:33:09;58.47;;;27.25;;
35877;SDS011;21982;49.804;24.072;2023-03-03T19:35:50;55.55;;;27.70;;
35877;SDS011;21982;49.804;24.072;2023-03-03T19:38:39;49.78;;;26.77;;
35877;SDS011;21982;49.804;24.072;2023-03-03T19:51:51;56.67;;;25.30;;
35877;SDS011;21982;49.804;24.072;2023-03-03T20:00:05;57.70;;;28.55;;
35877;SDS011;21982;49.804;24.072;2023-03-03T20:14:30;55.35;;;25.65;;
35877;SDS011;21982;49.804;24.072;2023-03-03T20:17:11;63.63;;;25.42;;
35877;SDS011;21982;49.804;24.072;2023-03-03T20:19:49;50.58;;;24.35;;
35877;SDS011;21982;49.804;24.072;2023-03-03T20:22:59;51.17;;;25.55;;
35877;SDS011;21982;49.804;24.072;2023-03-03T20:25:50;55.88;;;23.70;;
35877;SDS011;21982;49.804;24.072;2023-03-03T20:34:12;55.40;;;23.70;;
35877;SDS011;21982;49.804;24.072;2023-03-03T20:37:29;48.33;;;24.40;;
35877;SDS011;21982;49.804;24.072;2023-03-03T20:56:08;53.10;;;23.85;;
35877;SDS011;21982;49.804;24.072;2023-03-03T20:58:41;56.33;;;25.83;;
35877;SDS011;21982;49.804;24.072;2023-03-03T21:01:15;54.13;;;22.95;;
35877;SDS011;21982;49.804;24.072;2023-03-03T21:04:21;57.80;;;26.70;;
35877;SDS011;21982;49.804;24.072;2023-03-03T21:06:55;51.38;;;24.10;;
35877;SDS011;21982;49.804;24.072;2023-03-03T21:11:54;59.15;;;22.80;;
35877;SDS011;21982;49.804;24.072;2023-03-03T21:16:50;56.95;;;24.73;;
35877;SDS011;21982;49.804;24.072;2023-03-03T21:19:24;53.55;;;23.65;;
35877;SDS011;21982;49.804;24.072;2023-03-03T21:21:53;49.58;;;23.20;;
35877;SDS011;21982;49.804;24.072;2023-03-03T21:24:18;54.20;;;25.45;;